createdAt,value
2022-08-10T00:00:28.011Z,52.14258
2022-08-10T00:02:28.168Z,52.58203
2022-08-10T00:04:28.054Z,52.47656
2022-08-10T00:06:28.050Z,52.83203
2022-08-10T00:08:28.131Z,52.85547
2022-08-10T00:11:48.935Z,52.91602
2022-08-10T00:13:48.897Z,52.74316
2022-08-10T00:15:55.136Z,52.84473
2022-08-10T00:17:48.987Z,53.54395
2022-08-10T00:20:02.285Z,53.59766
2022-08-10T00:21:48.912Z,53.78809
2022-08-10T00:23:48.919Z,53.58203
2022-08-10T00:27:47.063Z,53.70801
2022-08-10T00:29:12.181Z,53.48535
2022-08-10T00:31:11.146Z,53.92871
2022-08-10T00:33:11.120Z,53.53613
2022-08-10T00:35:11.179Z,53.53711
2022-08-10T00:37:11.136Z,53.37793
2022-08-10T00:39:16.198Z,53.41504
2022-08-10T00:42:09.173Z,53.4502
2022-08-10T00:44:09.204Z,54.00586
2022-08-10T00:46:09.149Z,54.06348
2022-08-10T00:48:09.148Z,53.91016
2022-08-10T00:50:10.119Z,54.14355
2022-08-10T00:52:09.136Z,54.6084
2022-08-10T00:54:24.835Z,54.4082
2022-08-10T00:57:55.819Z,54.83984
2022-08-10T00:59:58.276Z,54.91016
2022-08-10T01:02:08.189Z,54.91602
2022-08-10T01:04:35.836Z,55.01367
2022-08-10T01:05:51.933Z,54.87695
2022-08-10T01:07:47.058Z,55.07617
2022-08-10T01:09:57.524Z,54.86621
2022-08-10T01:12:37.994Z,55.36523
2022-08-10T01:14:26.545Z,55.2627
2022-08-10T01:16:26.570Z,55.77051
2022-08-10T01:18:26.558Z,56.22754
2022-08-10T01:20:31.387Z,56.22168
2022-08-10T01:22:26.711Z,55.96777
2022-08-10T01:24:26.554Z,56.57813
2022-08-10T01:27:33.483Z,56.47754
2022-08-10T01:29:33.461Z,56.01563
2022-08-10T01:31:33.462Z,55.95898
2022-08-10T01:33:58.277Z,56.14063
2022-08-10T01:35:33.535Z,55.87305
2022-08-10T01:37:33.509Z,55.94824
2022-08-10T01:39:33.642Z,55.84863
2022-08-10T01:43:16.804Z,56.5498
2022-08-10T01:45:16.807Z,56.88867
2022-08-10T01:47:22.690Z,57.15625
2022-08-10T01:49:16.885Z,56.99707
2022-08-10T01:51:16.957Z,56.89551
2022-08-10T01:53:16.812Z,56.67969
2022-08-10T01:55:16.813Z,56.54785
2022-08-10T01:58:00.686Z,56.86719
2022-08-10T02:00:03.284Z,56.625
2022-08-10T02:02:00.677Z,56.49219
2022-08-10T02:04:06.198Z,56.8418
2022-08-10T02:06:00.658Z,57.03711
2022-08-10T02:08:00.641Z,57.16699
2022-08-10T02:10:00.692Z,57.34082
2022-08-10T02:13:08.254Z,57.37695
2022-08-10T02:15:08.263Z,57.79199
2022-08-10T02:17:08.265Z,57.78809
2022-08-10T02:19:12.326Z,57.67383
2022-08-10T02:21:08.252Z,57.86523
2022-08-10T02:23:08.260Z,57.70117
2022-08-10T02:25:08.284Z,58.05176
2022-08-10T02:27:58.335Z,58.48145
2022-08-10T02:29:58.298Z,57.62109
2022-08-10T02:32:00.012Z,57.97559
2022-08-10T02:33:59.732Z,58.00391
2022-08-10T02:35:58.282Z,57.91016
2022-08-10T02:37:58.314Z,58.21191
2022-08-10T02:39:58.333Z,58.63379
2022-08-10T02:42:19.011Z,58.35449
2022-08-10T02:45:17.132Z,59.24219
2022-08-10T02:45:31.606Z,59.38379
2022-08-10T02:47:22.231Z,59.21289
2022-08-10T02:49:22.278Z,59.31836
2022-08-10T02:52:06.062Z,59.48047
2022-08-10T02:53:49.635Z,59.45703
2022-08-10T02:55:27.389Z,59.05859
2022-08-10T02:57:22.236Z,59.4043
2022-08-10T02:59:00.281Z,59.89355
2022-08-10T03:01:00.427Z,59.61426
2022-08-10T03:03:00.294Z,59.6875
2022-08-10T03:05:00.280Z,59.60742
2022-08-10T03:07:00.310Z,59.63379
2022-08-10T03:09:00.264Z,59.73047
2022-08-10T03:11:00.294Z,59.72559
2022-08-10T03:14:12.203Z,59.39746
2022-08-10T03:16:12.311Z,59.73633
2022-08-10T03:18:12.295Z,59.7168
2022-08-10T03:20:36.248Z,59.64551
2022-08-10T03:22:12.254Z,59.83008
2022-08-10T03:24:26.232Z,59.60645
2022-08-10T03:26:12.194Z,59.27148
2022-08-10T03:29:26.324Z,59.60742
2022-08-10T03:31:26.472Z,59.28613
2022-08-10T03:33:26.280Z,59.24414
2022-08-10T03:35:26.468Z,58.96777
2022-08-10T03:37:26.519Z,59.125
2022-08-10T03:39:26.307Z,58.92676
2022-08-10T03:41:29.824Z,59.59375
2022-08-10T03:44:50.444Z,59.75586
2022-08-10T03:46:43.509Z,59.06641
2022-08-10T03:48:50.110Z,58.58887
2022-08-10T03:50:52.853Z,59.22559
2022-08-10T03:54:43.549Z,59.28906
2022-08-10T03:56:43.504Z,59.1084
2022-08-10T04:00:01.515Z,59.32324
2022-08-10T04:02:42.878Z,57.48535
2022-08-10T04:04:13.575Z,55.28809
2022-08-10T04:06:01.555Z,52.55762
2022-08-10T04:08:01.552Z,50.63672
2022-08-10T04:10:03.321Z,49.12012
2022-08-10T04:12:01.595Z,47.63574
2022-08-10T04:14:35.753Z,45.91699
2022-08-10T04:16:21.930Z,45.03711
2022-08-10T04:18:21.933Z,43.93066
2022-08-10T04:20:21.938Z,43.12988
2022-08-10T04:22:22.009Z,42.83594
2022-08-10T04:24:31.869Z,42.73633
2022-08-10T04:26:21.940Z,42.49707
2022-08-10T04:28:21.985Z,42.5752
2022-08-10T04:30:15.290Z,42.78223
2022-08-10T04:32:15.292Z,41.88477
2022-08-10T04:34:15.275Z,40.34277
2022-08-10T04:36:15.357Z,39.1377
2022-08-10T04:38:15.286Z,38.33105
2022-08-10T04:40:30.028Z,39.12012
2022-08-10T04:42:15.954Z,38.77734
2022-08-10T04:45:48.009Z,38.70215
2022-08-10T04:47:51.264Z,36.52539
2022-08-10T04:49:54.448Z,33.8877
2022-08-10T04:51:28.479Z,32.43848
2022-08-10T04:53:28.443Z,31.55566
2022-08-10T04:55:28.413Z,30.4834
2022-08-10T04:57:28.389Z,30.8125
2022-08-10T04:59:48.246Z,30.08887
2022-08-10T05:02:13.584Z,29.58691
2022-08-10T05:04:32.980Z,29.22266
2022-08-10T05:05:51.193Z,28.87207
2022-08-10T05:07:57.146Z,28.29102
2022-08-10T05:10:03.275Z,29.11719
2022-08-10T05:11:48.093Z,29.69141
2022-08-10T05:13:48.126Z,31.71777
2022-08-10T05:15:01.791Z,32.48535
2022-08-10T05:17:01.739Z,33.27539
2022-08-10T05:19:01.880Z,33.74902
2022-08-10T05:21:01.916Z,34.2041
2022-08-10T05:23:01.966Z,35.58398
2022-08-10T05:25:01.888Z,36.61426
2022-08-10T05:27:10.759Z,37.12695
2022-08-10T05:29:01.712Z,37.29688
2022-08-10T05:30:17.968Z,36.73145
2022-08-10T05:32:17.915Z,36.94922
2022-08-10T05:34:21.105Z,37.47461
2022-08-10T05:36:17.907Z,37.50293
2022-08-10T05:38:18.047Z,37.74805
2022-08-10T05:40:17.938Z,37.59375
2022-08-10T05:42:17.905Z,37.55957
2022-08-10T05:46:16.163Z,37.71289
2022-08-10T05:48:40.878Z,37.98926
2022-08-10T05:49:58.541Z,39.08887
2022-08-10T05:51:58.559Z,38.50977
2022-08-10T05:54:06.686Z,38.19043
2022-08-10T05:55:58.832Z,38.25879
2022-08-10T05:57:58.676Z,38.92188
2022-08-10T06:00:40.739Z,39.87402
2022-08-10T06:02:35.846Z,39.6709
2022-08-10T06:04:28.054Z,40.04395
2022-08-10T06:06:28.060Z,40.10254
2022-08-10T06:08:28.094Z,40.96875
2022-08-10T06:10:33.159Z,40.51953
2022-08-10T06:12:53.325Z,40.35938
2022-08-10T06:14:29.376Z,41.04492
2022-08-10T06:16:27.883Z,40.15625
2022-08-10T06:18:27.927Z,41.55566
2022-08-10T06:20:35.455Z,41.15332
2022-08-10T06:22:27.877Z,40.47949
2022-08-10T06:24:31.067Z,40.31348
2022-08-10T06:26:27.907Z,41.38867
2022-08-10T06:28:27.927Z,41.39258
2022-08-10T11:31:56.108Z,36.07129
2022-08-10T11:34:46.688Z,36.02637
2022-08-10T11:36:43.915Z,35.27246
2022-08-10T11:39:13.315Z,36
2022-08-10T11:40:43.909Z,35.15723
2022-08-10T11:42:43.935Z,35.75977
2022-08-10T11:44:44.511Z,35.50879
2022-08-10T11:46:43.970Z,34.93945
2022-08-10T11:48:56.269Z,35.61914
2022-08-10T11:51:49.248Z,36.31738
2022-08-10T11:53:49.181Z,39.74316
2022-08-10T11:55:49.189Z,39.33008
2022-08-10T11:57:55.624Z,36.79395
2022-08-10T11:59:49.232Z,38.0498
2022-08-10T12:01:49.241Z,38.10059
2022-08-10T12:03:49.186Z,37.38379
2022-08-10T12:08:54.596Z,34.92578
2022-08-10T12:10:08.005Z,34.29785
2022-08-10T12:11:08.174Z,35.51465
2022-08-10T12:13:08.221Z,33.12793
2022-08-10T12:15:08.182Z,33.51563
2022-08-10T12:17:08.276Z,32.13379
2022-08-10T12:19:08.197Z,32.30371
2022-08-10T12:22:19.567Z,31.41406
2022-08-10T12:24:19.548Z,34.2002
2022-08-10T12:26:19.534Z,32.73145
2022-08-10T12:28:19.563Z,31.54883
2022-08-10T12:30:19.519Z,32.08691
2022-08-10T12:32:25.931Z,34.32715
2022-08-10T12:34:19.684Z,34.20117
2022-08-10T12:37:08.561Z,34.05664
2022-08-10T12:39:08.815Z,35.03711
2022-08-10T12:41:08.570Z,34.82227
2022-08-10T12:44:06.011Z,35.1875
2022-08-10T12:45:08.566Z,35.02441
2022-08-10T12:47:14.763Z,35.56055
2022-08-10T12:49:09.107Z,35.47559
2022-08-10T12:52:10.840Z,35.18652
2022-08-10T12:54:10.737Z,34.69141
2022-08-10T12:56:10.723Z,36.14063
2022-08-10T12:58:58.593Z,35.3457
2022-08-10T13:00:17.924Z,34.26465
2022-08-10T13:02:11.328Z,34.65234
2022-08-10T13:04:24.323Z,34.62988
2022-08-10T13:06:10.710Z,34.71582
2022-08-10T13:08:04.200Z,35.41797
2022-08-10T13:09:56.936Z,35.63379
2022-08-10T13:12:34.779Z,36.97363
2022-08-10T13:13:49.598Z,37.8125
2022-08-10T13:15:51.447Z,36.75488
2022-08-10T13:17:52.888Z,38.47656
2022-08-10T13:20:00.032Z,38.00391
2022-08-10T13:23:06.318Z,36.87305
2022-08-10T13:25:06.266Z,38.06348
2022-08-10T13:27:25.351Z,37.0293
2022-08-10T13:29:13.275Z,36.67383
2022-08-10T13:31:06.315Z,36.7793
2022-08-10T13:33:06.293Z,38.37793
2022-08-10T13:35:06.328Z,38.4668
2022-08-10T13:38:32.586Z,37.875
2022-08-10T13:40:32.605Z,36.92871
2022-08-10T13:42:33.159Z,36.63672
2022-08-10T13:44:32.579Z,38.33887
2022-08-10T13:46:32.651Z,38.35449
2022-08-10T13:48:32.598Z,37.6709
2022-08-10T13:50:37.741Z,37.49023
2022-08-10T13:53:16.016Z,37.15234
2022-08-10T13:55:13.182Z,37.31641
2022-08-10T13:57:13.216Z,37.07617
2022-08-10T13:59:16.626Z,36.93945
2022-08-10T14:01:13.319Z,37.30078
2022-08-10T14:03:13.139Z,36.6748
2022-08-10T14:05:13.387Z,36.75781
2022-08-10T14:08:31.883Z,36.42969
2022-08-10T14:11:01.212Z,36.19531
2022-08-10T14:12:33.841Z,35.96777
2022-08-10T14:14:31.753Z,37.87793
2022-08-10T14:16:32.111Z,38.72168
2022-08-10T14:18:31.774Z,39.91016
2022-08-10T14:20:31.796Z,41.08887
2022-08-10T14:24:02.622Z,40.27832
2022-08-10T14:26:09.242Z,40.51953
2022-08-10T14:28:04.369Z,41.19824
2022-08-10T14:30:02.618Z,40.87598
2022-08-10T14:32:02.763Z,40.61133
2022-08-10T14:34:02.592Z,40.70801
2022-08-10T14:36:17.495Z,40.78125
2022-08-10T14:38:34.306Z,40.6875
2022-08-10T14:40:34.276Z,40.58105
2022-08-10T14:42:34.297Z,41.00391
2022-08-10T14:44:34.373Z,41.39746
2022-08-10T14:46:34.297Z,42.34668
2022-08-10T14:48:34.331Z,41.92676
2022-08-10T14:50:34.378Z,41.87305
2022-08-10T14:53:54.490Z,42.375
2022-08-10T14:56:02.084Z,42.13086
2022-08-10T14:58:17.507Z,41.97656
2022-08-10T15:00:23.855Z,41.8877
2022-08-10T15:02:39.389Z,42.13281
2022-08-10T15:04:03.411Z,44.3916
2022-08-10T15:05:59.367Z,47.22754
2022-08-10T15:08:48.122Z,50.18066
2022-08-10T15:10:51.362Z,51.79492
2022-08-10T15:12:49.088Z,53.10938
2022-08-10T15:14:47.767Z,53.56445
2022-08-10T15:16:49.925Z,53.80469
2022-08-10T15:18:59.052Z,54.69336
2022-08-10T15:20:51.776Z,54.49609
2022-08-10T15:24:27.595Z,55.125
2022-08-10T15:26:18.612Z,56.52246
2022-08-10T15:28:19.144Z,56.85059
2022-08-10T15:30:18.895Z,56.51563
2022-08-10T15:32:18.661Z,56.00684
2022-08-10T15:34:19.170Z,56.87109
2022-08-10T15:36:20.590Z,57.05273
2022-08-10T15:40:22.968Z,57.46094
2022-08-10T15:41:57.157Z,57.93457
2022-08-10T15:43:26.265Z,57.85254
2022-08-10T15:45:26.061Z,57.62305
2022-08-10T15:47:26.164Z,58.29102
2022-08-10T15:49:26.052Z,58.62012
2022-08-10T15:51:53.239Z,58.14063
2022-08-10T15:54:03.493Z,58.88477
2022-08-10T15:56:02.617Z,58.95996
2022-08-10T15:58:02.640Z,59.35938
2022-08-10T16:00:02.922Z,59.37695
2022-08-10T16:02:16.555Z,59.43164
2022-08-10T16:04:09.124Z,59.69141
2022-08-10T16:06:03.698Z,60.39453
2022-08-10T16:08:02.706Z,60.99609
2022-08-10T16:10:11.368Z,61.14551
2022-08-10T16:11:43.316Z,60.89648
2022-08-10T16:14:01.014Z,61.69043
2022-08-10T16:15:43.219Z,61.81934
2022-08-10T16:17:54.395Z,61.15137
2022-08-10T16:19:43.246Z,61.82422
2022-08-10T16:21:43.235Z,61.20703
2022-08-10T16:24:59.419Z,61.49707
2022-08-10T16:26:59.521Z,62.06738
2022-08-10T16:28:59.449Z,62.48145
2022-08-10T16:30:59.610Z,62.89844
2022-08-10T16:32:59.459Z,62.58789
2022-08-10T16:34:59.416Z,62.34668
2022-08-10T16:36:59.525Z,62.42285
2022-08-10T16:40:04.330Z,62.28906
2022-08-10T16:42:05.905Z,62.21289
2022-08-10T16:43:57.595Z,62.08887
2022-08-10T16:45:57.617Z,61.7998
2022-08-10T16:47:57.715Z,62.20703
2022-08-10T16:49:57.882Z,62.3125
2022-08-10T16:51:57.576Z,62.53223
2022-08-10T16:54:54.697Z,61.88867
2022-08-10T16:56:54.654Z,61.98926
2022-08-10T16:58:54.629Z,62.08887
2022-08-10T17:00:54.797Z,62.24902
2022-08-10T17:02:54.714Z,62.14063
2022-08-10T17:04:54.708Z,62.47559
2022-08-10T17:06:56.901Z,62.57129
2022-08-10T17:10:26.513Z,62.68555
2022-08-10T17:12:27.309Z,62.8877
2022-08-10T17:14:26.598Z,63.34668
2022-08-10T17:16:26.401Z,63.52832
2022-08-10T17:18:26.439Z,62.97363
2022-08-10T17:20:32.567Z,62.69727
2022-08-10T17:22:26.489Z,63.54199
2022-08-10T17:25:51.219Z,63.08105
2022-08-10T17:28:03.412Z,63.30469
2022-08-10T17:29:59.308Z,63.81836
2022-08-10T17:31:55.395Z,63.86133
2022-08-10T17:33:43.400Z,64.2002
2022-08-10T17:35:43.373Z,63.88086
2022-08-10T17:37:43.415Z,64.1582
2022-08-10T17:40:50.857Z,64.74219
2022-08-10T17:42:50.541Z,64.32031
2022-08-10T17:44:50.535Z,65.04199
2022-08-10T17:46:51.313Z,65.18945
2022-08-10T17:48:51.258Z,64.82813
2022-08-10T17:50:50.568Z,64.81836
2022-08-10T17:52:50.581Z,64.875
2022-08-10T17:55:46.959Z,64.98145
2022-08-10T17:57:46.867Z,64.81934
2022-08-10T17:59:46.902Z,64.92871
2022-08-10T18:01:59.160Z,65.24902
2022-08-10T18:03:46.887Z,64.92285
2022-08-10T18:05:56.351Z,64.75586
2022-08-10T18:07:46.908Z,65.10645
2022-08-10T18:11:07.389Z,64.56543
2022-08-10T18:13:07.374Z,64.78711
2022-08-10T18:15:14.078Z,64.50488
2022-08-10T18:17:07.374Z,64.65234
2022-08-10T18:19:07.409Z,64.78223
2022-08-10T18:21:07.429Z,64.63184
2022-08-10T18:23:07.415Z,64.7627
2022-08-10T18:26:19.152Z,65.20996
2022-08-10T18:28:19.068Z,65.1084
2022-08-10T18:30:19.151Z,65.02832
2022-08-10T18:32:19.228Z,64.59082
2022-08-10T18:34:19.184Z,64.66797
2022-08-10T18:36:19.231Z,64.88574
2022-08-10T18:38:19.147Z,65.00391
2022-08-10T18:41:34.650Z,64.87012
2022-08-10T18:44:04.786Z,65.29199
2022-08-10T18:45:34.543Z,65.00781
2022-08-10T18:47:34.568Z,64.96191
2022-08-10T18:49:34.471Z,64.83496
2022-08-10T18:51:46.499Z,65.10742
2022-08-10T18:53:34.851Z,64.95996
2022-08-10T18:56:35.008Z,65.53027
2022-08-10T18:58:35.069Z,65.88379
2022-08-10T19:00:35.042Z,65.70313
2022-08-10T19:02:35.188Z,66.30957
2022-08-10T19:04:35.279Z,66.16699
2022-08-10T19:06:35.218Z,66.56836
2022-08-10T19:08:35.300Z,66.57813
2022-08-10T19:11:23.402Z,66.54102
2022-08-10T19:13:23.224Z,66.65625
2022-08-10T19:15:23.251Z,66.81445
2022-08-10T19:17:23.203Z,66.75
2022-08-10T19:19:23.298Z,66.7832
2022-08-10T19:21:23.243Z,66.32129
2022-08-10T19:23:23.268Z,66.50977
2022-08-10T19:26:43.435Z,66.3584
2022-08-10T19:28:20.090Z,66.66797
2022-08-10T19:30:20.097Z,66.6582
2022-08-10T19:32:20.204Z,66.74316
2022-08-10T19:34:20.207Z,66.55957
2022-08-10T19:36:20.139Z,66.88281
2022-08-10T19:38:32.012Z,66.80371
2022-08-10T19:40:43.657Z,66.86816
2022-08-10T19:42:31.971Z,66.43262
2022-08-10T19:44:31.385Z,66.61816
2022-08-10T19:46:31.370Z,66.92773
2022-08-10T19:48:31.361Z,67.00879
2022-08-10T19:50:31.384Z,67.15039
2022-08-10T19:52:31.388Z,66.93555
2022-08-10T19:54:31.374Z,66.85449
2022-08-10T19:57:28.460Z,66.82422
2022-08-10T20:00:05.888Z,67.50879
2022-08-10T20:01:54.331Z,66.93359
2022-08-10T20:03:28.313Z,67.14063
2022-08-10T20:05:28.830Z,66.97949
2022-08-10T20:07:28.517Z,66.40332
2022-08-10T20:09:28.524Z,66.7002
2022-08-10T20:12:02.455Z,66.93652
2022-08-10T20:14:02.387Z,66.7832
2022-08-10T20:16:02.409Z,66.56152
2022-08-10T20:18:02.388Z,66.71582
2022-08-10T20:20:02.366Z,66.32715
2022-08-10T20:22:02.396Z,66.59863
2022-08-10T20:24:02.359Z,66.67188
2022-08-10T20:26:02.376Z,66.6875
2022-08-10T20:28:05.199Z,66.67188
2022-08-10T20:30:05.217Z,66.87988
2022-08-10T20:32:05.234Z,66.74902
2022-08-10T20:34:05.192Z,66.58594
2022-08-10T20:36:05.232Z,66.84277
2022-08-10T20:38:05.663Z,67.11914
2022-08-10T20:40:05.193Z,67.10938
2022-08-10T20:42:56.733Z,67.17676
2022-08-10T20:44:55.863Z,67.02539
2022-08-10T20:46:55.789Z,67.21191
2022-08-10T20:48:55.813Z,67.13281
2022-08-10T20:50:55.820Z,67.12793
2022-08-10T20:52:55.776Z,66.93359
2022-08-10T20:54:55.780Z,67.37988
2022-08-10T20:57:57.932Z,67.47266
2022-08-10T21:00:05.307Z,67.38184
2022-08-10T21:02:11.940Z,67.42285
2022-08-10T21:03:58.892Z,67.79883
2022-08-10T21:05:56.827Z,67.6123
2022-08-10T21:08:05.138Z,67.50488
2022-08-10T21:09:56.584Z,67.10742
2022-08-10T21:13:32.399Z,67.70996
2022-08-10T21:15:42.716Z,67.34668
2022-08-10T21:17:37.615Z,67.27441
2022-08-10T21:19:33.421Z,67.33398
2022-08-10T21:21:42.335Z,67.44043
2022-08-10T21:23:38.183Z,67.68359
2022-08-10T21:25:33.293Z,67.38184
2022-08-10T21:28:58.254Z,68.03711
2022-08-10T21:30:51.366Z,67.93555
2022-08-10T21:32:50.759Z,68.58789
2022-08-10T21:34:55.526Z,68.08984
2022-08-10T21:36:49.052Z,68.22461
2022-08-10T21:38:48.362Z,67.99414
2022-08-10T21:41:17.243Z,68.24902
2022-08-10T21:43:22.926Z,68.33691
2022-08-10T21:45:47.610Z,68.50586
2022-08-10T21:49:23.409Z,68.2334
2022-08-10T21:52:00.795Z,68.07422
2022-08-10T21:53:44.297Z,68.05078
2022-08-10T21:55:22.898Z,68.39063
2022-08-10T21:58:18.517Z,68.57617
2022-08-10T22:00:16.726Z,68.78516
2022-08-10T22:02:16.767Z,68.76074
2022-08-10T22:04:19.297Z,68.48535
2022-08-10T22:06:19.272Z,69.13281
2022-08-10T22:08:18.223Z,68.42285
2022-08-10T22:10:16.948Z,68.49902
2022-08-10T22:12:31.459Z,68.25879
2022-08-10T22:13:49.249Z,67.93555
2022-08-10T22:16:03.438Z,68.15918
2022-08-10T22:18:00.329Z,68.12402
2022-08-10T22:19:49.725Z,68.15918
2022-08-10T22:21:48.731Z,67.81836
2022-08-10T22:23:51.974Z,67.85254
2022-08-10T22:25:52.388Z,67.97363
2022-08-10T22:29:43.190Z,67.55469
2022-08-10T22:31:26.634Z,68.17578
2022-08-10T22:31:38.203Z,67.81934
2022-08-10T22:33:38.189Z,68.13574
2022-08-10T22:35:38.232Z,68.2207
2022-08-10T22:37:38.171Z,68.45313
2022-08-10T22:40:07.781Z,68.25977
2022-08-10T22:41:38.238Z,68.34668
2022-08-10T22:44:49.568Z,68.60352
2022-08-10T22:46:49.610Z,68.15918
2022-08-10T22:48:52.267Z,68.75
2022-08-10T22:50:49.645Z,68.17285
2022-08-10T22:53:02.120Z,68.38086
2022-08-10T22:54:49.559Z,68.16602
2022-08-10T22:56:55.791Z,68.31934
2022-08-10T22:59:03.176Z,67.64844
2022-08-10T23:01:03.135Z,68.28711
2022-08-10T23:03:03.407Z,68.06543
2022-08-10T23:05:03.158Z,68.34277
2022-08-10T23:07:03.157Z,68.44922
2022-08-10T23:09:03.157Z,68.54785
2022-08-10T23:11:03.157Z,68.53906
2022-08-10T23:13:03.255Z,68.54199
2022-08-10T23:14:16.260Z,68.57422
2022-08-10T23:16:16.200Z,68.27637
2022-08-10T23:18:16.210Z,68.31445
2022-08-10T23:20:16.551Z,68.46777
2022-08-10T23:22:16.271Z,68.0957
2022-08-10T23:24:16.484Z,68.27246
2022-08-10T23:26:16.278Z,68.45703
2022-08-10T23:28:38.486Z,68.44043
2022-08-10T23:30:30.070Z,68.39941
2022-08-10T23:32:29.583Z,68.22168
2022-08-10T23:34:29.586Z,68.63184
2022-08-10T23:36:35.790Z,68.65039
2022-08-10T23:38:29.590Z,68.63965
2022-08-10T23:40:29.630Z,68.59082
2022-08-10T23:42:29.573Z,68.70703
2022-08-10T23:45:27.453Z,68.37598
2022-08-10T23:47:27.461Z,68.75195
2022-08-10T23:49:27.480Z,68.50781
2022-08-10T23:51:38.996Z,68.4873
2022-08-10T23:53:27.449Z,69.5957
2022-08-10T23:55:27.472Z,69.82324
2022-08-10T23:57:27.443Z,69.32617
